createdAt,value
2023-02-12T00:00:46.692Z,28.10
2023-02-12T00:03:39.492Z,26.10
2023-02-12T00:06:15.921Z,27.90
2023-02-12T00:08:52.335Z,22.30
2023-02-12T00:11:28.807Z,23.10
2023-02-12T00:14:03.224Z,23.50
2023-02-12T00:16:36.255Z,28.80
2023-02-12T00:19:08.441Z,22.80
2023-02-12T00:21:40.720Z,22.50
2023-02-12T00:24:12.974Z,22.50
2023-02-12T00:26:45.267Z,23.50
2023-02-12T00:29:17.767Z,23.80
2023-02-12T00:31:50.080Z,19.40
2023-02-12T00:34:22.411Z,27.90
2023-02-12T00:36:54.660Z,24.20
2023-02-12T00:39:26.889Z,22.60
2023-02-12T00:41:59.075Z,23.50
2023-02-12T00:44:31.743Z,24.50
2023-02-12T00:47:07.268Z,25.90
2023-02-12T00:49:41.505Z,20.40
2023-02-12T00:52:13.804Z,25.00
2023-02-12T00:54:46.204Z,23.80
2023-02-12T00:57:19.777Z,22.50
2023-02-12T00:59:52.560Z,23.70
2023-02-12T01:02:26.416Z,22.50
2023-02-12T01:04:59.108Z,20.20
2023-02-12T01:07:31.447Z,24.80
2023-02-12T01:10:03.908Z,23.00
2023-02-12T01:12:36.253Z,26.00
2023-02-12T01:15:10.534Z,36.00
2023-02-12T01:17:43.136Z,32.50
2023-02-12T01:20:21.148Z,31.30
2023-02-12T01:22:54.841Z,28.60
2023-02-12T01:25:27.221Z,28.40
2023-02-12T01:28:02.473Z,29.80
2023-02-12T01:30:34.966Z,26.60
2023-02-12T01:33:07.342Z,25.50
2023-02-12T01:35:40.272Z,27.20
2023-02-12T01:38:12.691Z,21.40
2023-02-12T01:40:45.697Z,25.20
2023-02-12T01:43:18.306Z,24.20
2023-02-12T01:45:56.395Z,26.90
2023-02-12T01:48:32.642Z,25.80
2023-02-12T01:51:11.219Z,24.40
2023-02-12T01:53:48.559Z,30.80
2023-02-12T01:56:21.507Z,25.90
2023-02-12T01:58:55.722Z,35.20
2023-02-12T02:01:32.304Z,26.60
2023-02-12T02:04:10.147Z,36.60
2023-02-12T02:06:49.434Z,26.20
2023-02-12T02:09:22.391Z,23.70
2023-02-12T02:12:12.790Z,24.50
2023-02-12T02:14:46.420Z,24.20
2023-02-12T02:17:42.962Z,21.10
2023-02-12T02:21:04.864Z,22.50
2023-02-12T02:24:22.576Z,20.50
2023-02-12T02:27:14.264Z,19.80
2023-02-12T02:29:58.158Z,27.20
2023-02-12T02:32:33.829Z,25.30
2023-02-12T02:35:16.910Z,28.80
2023-02-12T02:37:57.926Z,28.30
2023-02-12T02:40:40.227Z,24.50
2023-02-12T02:43:17.441Z,20.90
2023-02-12T02:45:54.422Z,21.50
2023-02-12T02:48:33.488Z,22.40
2023-02-12T02:51:09.819Z,22.90
2023-02-12T02:53:46.559Z,22.00
2023-02-12T02:56:21.353Z,21.80
2023-02-12T02:59:00.629Z,23.40
2023-02-12T03:01:37.862Z,23.00
2023-02-12T03:04:13.465Z,22.30
2023-02-12T03:06:51.952Z,22.10
2023-02-12T03:09:30.247Z,20.50
2023-02-12T03:12:07.767Z,22.20
2023-02-12T03:14:46.872Z,23.50
2023-02-12T03:17:23.584Z,25.30
2023-02-12T03:20:01.652Z,36.50
2023-02-12T03:22:37.603Z,24.50
2023-02-12T03:25:16.344Z,30.40
2023-02-12T03:27:54.322Z,30.10
2023-02-12T03:30:30.630Z,24.80
2023-02-12T03:33:12.025Z,25.00
2023-02-12T03:35:54.797Z,24.80
2023-02-12T03:38:35.872Z,24.90
2023-02-12T03:41:13.802Z,22.40
2023-02-12T03:43:53.810Z,17.90
2023-02-12T03:46:32.646Z,20.00
2023-02-12T03:49:11.763Z,20.00
2023-02-12T03:51:46.258Z,24.90
2023-02-12T03:54:20.924Z,27.70
2023-02-12T03:56:57.336Z,22.30
2023-02-12T03:59:30.396Z,30.50
2023-02-12T04:02:02.852Z,30.50
2023-02-12T04:04:36.208Z,22.40
2023-02-12T04:07:08.839Z,27.10
2023-02-12T04:09:41.555Z,26.70
2023-02-12T04:12:35.455Z,23.90
2023-02-12T04:15:24.828Z,20.10
2023-02-12T04:18:07.360Z,20.40
2023-02-12T04:20:50.055Z,24.20
2023-02-12T04:23:38.445Z,22.60
2023-02-12T04:26:18.755Z,22.30
2023-02-12T04:28:59.619Z,27.40
2023-02-12T04:31:35.536Z,20.30
2023-02-12T04:34:15.811Z,19.10
2023-02-12T04:36:58.580Z,19.50
2023-02-12T04:39:35.247Z,24.30
2023-02-12T04:42:08.859Z,26.00
2023-02-12T04:44:45.555Z,22.50
2023-02-12T04:47:18.723Z,21.60
2023-02-12T04:49:51.131Z,22.60
2023-02-12T04:52:23.352Z,15.50
2023-02-12T04:54:56.135Z,12.50
2023-02-12T04:57:28.592Z,14.60
2023-02-12T05:00:01.132Z,11.40
2023-02-12T05:02:34.287Z,8.20
2023-02-12T05:05:07.398Z,8.60
2023-02-12T05:07:39.707Z,8.10
2023-02-12T05:10:13.349Z,8.00
2023-02-12T05:12:45.606Z,7.80
2023-02-12T05:15:20.397Z,8.60
2023-02-12T05:17:52.738Z,7.90
2023-02-12T05:20:25.444Z,7.30
2023-02-12T05:22:58.097Z,7.50
2023-02-12T05:25:32.459Z,22.70
2023-02-12T05:28:05.013Z,18.00
2023-02-12T05:30:37.387Z,16.60
2023-02-12T05:33:12.287Z,12.80
2023-02-12T05:35:44.627Z,17.40
2023-02-12T05:38:18.277Z,11.20
2023-02-12T05:40:50.608Z,7.80
2023-02-12T05:43:26.344Z,7.70
2023-02-12T05:46:02.043Z,8.60
2023-02-12T05:48:35.318Z,7.70
2023-02-12T05:51:10.199Z,11.50
2023-02-12T05:53:43.396Z,9.40
2023-02-12T05:56:18.448Z,8.90
2023-02-12T05:58:53.896Z,8.20
2023-02-12T06:01:28.869Z,15.00
2023-02-12T06:04:08.843Z,12.40
2023-02-12T06:06:42.325Z,9.40
2023-02-12T06:09:15.787Z,6.70
2023-02-12T06:11:48.806Z,16.40
2023-02-12T06:14:22.544Z,8.90
2023-02-12T06:16:55.287Z,17.30
2023-02-12T06:19:28.003Z,8.30
2023-02-12T06:22:00.296Z,7.20
2023-02-12T06:24:32.667Z,6.60
2023-02-12T06:27:05.843Z,6.50
2023-02-12T06:29:38.036Z,6.10
2023-02-12T06:32:13.704Z,7.00
2023-02-12T06:34:45.984Z,6.90
2023-02-12T06:37:18.299Z,6.70
2023-02-12T06:39:50.953Z,9.30
2023-02-12T06:42:23.566Z,13.70
2023-02-12T06:44:55.773Z,12.40
2023-02-12T06:47:28.062Z,45.00
2023-02-12T06:50:00.366Z,14.80
2023-02-12T06:52:32.688Z,7.20
2023-02-12T06:55:05.039Z,11.50
2023-02-12T06:57:37.233Z,13.10
2023-02-12T07:00:12.165Z,10.00
2023-02-12T07:02:44.350Z,6.90
2023-02-12T07:05:16.787Z,6.70
2023-02-12T07:07:49.150Z,5.20
2023-02-12T07:10:23.525Z,5.60
2023-02-12T07:12:55.743Z,6.40
2023-02-12T07:15:27.917Z,7.30
2023-02-12T07:18:00.229Z,10.90
2023-02-12T07:20:32.412Z,12.10
2023-02-12T07:23:04.746Z,9.30
2023-02-12T07:25:37.033Z,9.60
2023-02-12T07:28:09.367Z,7.70
2023-02-12T07:30:42.779Z,12.90
2023-02-12T07:33:17.411Z,18.60
2023-02-12T07:35:49.701Z,11.10
2023-02-12T07:38:22.034Z,8.60
2023-02-12T07:40:54.254Z,7.50
2023-02-12T07:43:26.502Z,10.40
2023-02-12T07:46:06.669Z,9.00
2023-02-12T07:48:39.016Z,22.70
2023-02-12T07:51:13.592Z,12.30
2023-02-12T07:53:46.018Z,10.00
2023-02-12T07:56:21.668Z,8.30
2023-02-12T07:58:55.007Z,9.70
2023-02-12T08:01:29.245Z,20.20
2023-02-12T08:04:03.696Z,13.80
2023-02-12T08:06:38.989Z,12.70
2023-02-12T08:09:14.356Z,7.80
2023-02-12T08:11:47.372Z,8.30
2023-02-12T08:14:22.585Z,8.90
2023-02-12T08:16:55.300Z,8.90
2023-02-12T08:19:27.675Z,7.00
2023-02-12T08:22:02.463Z,9.20
2023-02-12T08:24:36.082Z,14.40
2023-02-12T08:27:08.286Z,11.80
2023-02-12T08:29:40.705Z,13.00
2023-02-12T08:32:14.458Z,14.10
2023-02-12T08:34:46.720Z,15.30
2023-02-12T08:37:22.491Z,13.60
2023-02-12T08:39:54.865Z,33.60
2023-02-12T08:42:28.162Z,15.10
2023-02-12T08:45:00.407Z,14.20
2023-02-12T08:47:32.658Z,11.10
2023-02-12T08:50:05.028Z,10.90
2023-02-12T08:52:38.755Z,12.30
2023-02-12T08:55:11.487Z,11.00
2023-02-12T08:57:44.854Z,11.20
2023-02-12T09:00:18.559Z,10.40
2023-02-12T09:02:52.650Z,9.00
2023-02-12T09:05:25.035Z,10.50
2023-02-12T09:08:00.161Z,9.20
2023-02-12T09:10:32.616Z,8.90
2023-02-12T09:13:04.732Z,9.10
2023-02-12T09:15:39.455Z,12.50
2023-02-12T09:18:12.062Z,19.70
2023-02-12T09:20:46.556Z,12.70
2023-02-12T09:23:18.901Z,13.60
2023-02-12T09:25:53.747Z,15.90
2023-02-12T09:28:26.671Z,11.70
2023-02-12T09:30:59.044Z,12.80
2023-02-12T09:33:31.426Z,9.80
2023-02-12T09:36:11.125Z,10.20
2023-02-12T09:38:44.075Z,16.30
2023-02-12T09:41:48.974Z,11.90
2023-02-12T09:44:28.638Z,8.90
2023-02-12T09:47:04.989Z,12.40
2023-02-12T09:49:57.385Z,9.70
2023-02-12T09:52:31.907Z,9.50
2023-02-12T09:55:04.940Z,8.40
2023-02-12T09:57:39.384Z,8.00
2023-02-12T10:00:16.898Z,9.60
2023-02-12T10:02:51.988Z,8.30
2023-02-12T10:05:28.694Z,7.10
2023-02-12T10:08:24.601Z,6.60
2023-02-12T10:11:02.090Z,8.40
2023-02-12T10:13:42.518Z,6.90
2023-02-12T10:16:22.387Z,4.70
2023-02-12T10:19:06.852Z,6.40
2023-02-12T10:21:51.202Z,7.60
2023-02-12T10:24:45.505Z,6.30
2023-02-12T10:27:19.227Z,5.40
2023-02-12T10:29:53.242Z,5.90
2023-02-12T10:32:29.603Z,6.20
2023-02-12T10:35:03.601Z,5.70
2023-02-12T10:37:41.976Z,6.60
2023-02-12T10:40:22.495Z,9.10
2023-02-12T10:42:55.571Z,8.40
2023-02-12T10:45:31.395Z,6.60
2023-02-12T10:48:12.505Z,8.00
2023-02-12T10:51:05.147Z,12.40
2023-02-12T10:53:39.369Z,8.70
2023-02-12T10:56:18.512Z,8.30
2023-02-12T10:58:59.438Z,7.50
2023-02-12T11:01:34.512Z,7.10
2023-02-12T11:04:28.649Z,49.90
2023-02-12T11:07:03.658Z,15.80
2023-02-12T11:09:40.811Z,10.30
2023-02-12T11:12:27.530Z,7.80
2023-02-12T11:15:01.803Z,10.70
2023-02-12T11:17:38.692Z,6.50
2023-02-12T11:20:30.752Z,7.70
2023-02-12T11:23:06.436Z,10.50
2023-02-12T11:25:56.013Z,8.30
2023-02-12T11:28:28.773Z,15.40
2023-02-12T11:31:04.577Z,9.30
2023-02-12T11:33:39.214Z,7.60
2023-02-12T11:36:22.155Z,10.10
2023-02-12T11:38:57.416Z,10.90
2023-02-12T11:41:36.602Z,11.70
2023-02-12T11:44:14.623Z,15.30
2023-02-12T11:46:52.613Z,16.00
2023-02-12T11:49:34.428Z,16.10
2023-02-12T11:52:08.037Z,10.60
2023-02-12T11:54:50.323Z,8.80
2023-02-12T11:57:40.821Z,9.70
2023-02-12T12:03:01.934Z,10.40
2023-02-12T12:05:40.077Z,9.20
2023-02-12T12:08:21.243Z,8.00
2023-02-12T12:10:59.879Z,8.40
2023-02-12T12:13:38.647Z,8.90
2023-02-12T12:16:33.100Z,20.80
2023-02-12T12:19:30.090Z,7.70
2023-02-12T12:22:09.797Z,8.00
2023-02-12T12:24:49.074Z,9.90
2023-02-12T12:30:42.562Z,17.90
2023-02-12T12:33:24.925Z,8.40
2023-02-12T12:36:08.581Z,8.60
2023-02-12T12:38:53.657Z,22.90
2023-02-12T12:41:33.953Z,19.10
2023-02-12T12:44:21.865Z,18.50
2023-02-12T12:47:06.472Z,23.20
2023-02-12T12:50:03.401Z,11.20
2023-02-12T12:53:10.829Z,12.10
2023-02-12T12:56:08.707Z,21.50
2023-02-12T12:58:52.402Z,14.10
2023-02-12T13:01:45.901Z,12.30
2023-02-12T13:04:50.260Z,17.30
2023-02-12T13:07:33.924Z,13.50
2023-02-12T13:10:24.373Z,10.00
2023-02-12T13:13:19.583Z,11.90
2023-02-12T13:16:02.673Z,15.90
2023-02-12T13:18:46.980Z,15.80
2023-02-12T13:21:33.560Z,15.50
2023-02-12T13:24:12.729Z,11.20
2023-02-12T13:26:53.925Z,306.50
2023-02-12T13:29:31.135Z,254.30
2023-02-12T13:32:07.465Z,234.60
2023-02-12T13:34:44.403Z,141.00
2023-02-12T13:37:21.739Z,129.70
2023-02-12T13:39:59.635Z,102.00
2023-02-12T13:42:44.987Z,107.30
2023-02-12T13:45:28.840Z,61.20
2023-02-12T13:48:19.883Z,42.80
2023-02-12T13:51:01.272Z,33.90
2023-02-12T13:53:47.101Z,11.00
2023-02-12T13:56:33.712Z,11.90
2023-02-12T13:59:26.051Z,7.40
2023-02-12T14:01:58.826Z,8.30
2023-02-12T14:04:36.627Z,7.40
2023-02-12T14:07:12.813Z,10.50
2023-02-12T14:09:47.650Z,10.00
2023-02-12T14:12:35.518Z,8.50
2023-02-12T14:15:21.840Z,9.90
2023-02-12T14:18:05.328Z,10.90
2023-02-12T14:20:40.244Z,53.10
2023-02-12T14:23:32.054Z,98.30
2023-02-12T14:26:10.892Z,37.40
2023-02-12T14:28:52.702Z,130.80
2023-02-12T14:31:34.589Z,65.50
2023-02-12T14:34:43.817Z,28.90
2023-02-12T14:37:44.173Z,29.20
2023-02-12T14:40:47.208Z,76.10
2023-02-12T14:43:55.906Z,21.40
2023-02-12T14:46:48.924Z,71.10
2023-02-12T14:49:27.044Z,17.70
2023-02-12T14:52:05.054Z,13.80
2023-02-12T14:54:42.422Z,10.40
2023-02-12T14:57:23.913Z,12.00
2023-02-12T14:59:59.093Z,21.70
2023-02-12T15:02:34.347Z,18.40
2023-02-12T15:05:14.932Z,11.10
2023-02-12T15:07:55.690Z,10.80
2023-02-12T15:10:33.878Z,11.20
2023-02-12T15:13:25.473Z,11.20
2023-02-12T15:16:02.906Z,10.40
2023-02-12T15:18:51.799Z,9.30
2023-02-12T15:21:29.636Z,14.40
2023-02-12T15:24:05.146Z,36.50
2023-02-12T15:26:41.780Z,23.30
2023-02-12T15:29:28.306Z,97.40
2023-02-12T15:32:03.843Z,157.70
2023-02-12T15:34:39.077Z,157.20
2023-02-12T15:37:20.306Z,163.40
2023-02-12T15:39:56.074Z,194.00
2023-02-12T15:42:32.982Z,184.10
2023-02-12T15:45:29.567Z,108.20
2023-02-12T15:48:12.372Z,47.60
2023-02-12T15:50:58.695Z,30.60
2023-02-12T15:53:32.275Z,38.10
2023-02-12T15:56:05.688Z,39.30
2023-02-12T15:58:43.772Z,29.90
2023-02-12T16:01:21.502Z,21.10
2023-02-12T16:03:55.630Z,19.20
2023-02-12T16:06:29.665Z,14.30
2023-02-12T16:09:07.564Z,12.40
2023-02-12T16:11:40.596Z,12.20
2023-02-12T16:14:24.507Z,12.10
2023-02-12T16:16:59.399Z,12.50
2023-02-12T16:19:33.787Z,12.70
2023-02-12T16:22:11.486Z,10.50
2023-02-12T16:24:50.508Z,12.00
2023-02-12T16:27:24.509Z,10.70
2023-02-12T16:29:59.215Z,14.30
2023-02-12T16:32:37.656Z,14.70
2023-02-12T16:35:28.408Z,13.40
2023-02-12T16:38:27.790Z,12.70
2023-02-12T16:41:21.161Z,10.80
2023-02-12T16:44:11.788Z,12.90
2023-02-12T16:49:22.407Z,11.40
2023-02-12T16:51:56.757Z,10.80
2023-02-12T16:54:32.083Z,10.40
2023-02-12T16:57:04.665Z,8.80
2023-02-12T16:59:43.323Z,8.40
2023-02-12T17:02:16.736Z,8.10
2023-02-12T17:04:49.258Z,8.40
2023-02-12T17:07:25.818Z,8.00
2023-02-12T17:09:58.032Z,8.20
2023-02-12T17:12:30.532Z,8.00
2023-02-12T17:15:07.776Z,8.00
2023-02-12T17:17:40.009Z,8.00
2023-02-12T17:20:14.229Z,9.50
2023-02-12T17:22:51.502Z,9.90
2023-02-12T17:25:23.737Z,8.30
2023-02-12T17:27:55.959Z,11.50
2023-02-12T17:30:32.448Z,9.40
2023-02-12T17:33:04.792Z,8.50
2023-02-12T17:35:38.294Z,8.30
2023-02-12T17:38:10.864Z,9.30
2023-02-12T17:40:43.186Z,11.80
2023-02-12T17:43:16.165Z,10.00
2023-02-12T17:45:48.520Z,9.80
2023-02-12T17:48:23.497Z,9.20
2023-02-12T17:50:58.471Z,9.30
2023-02-12T17:53:30.929Z,9.50
2023-02-12T17:56:03.208Z,8.20
2023-02-12T17:58:38.563Z,9.90
2023-02-12T18:01:13.967Z,10.10
2023-02-12T18:03:46.781Z,11.50
2023-02-12T18:06:25.680Z,11.00
2023-02-12T18:08:59.376Z,12.30
2023-02-12T18:11:33.049Z,13.40
2023-02-12T18:14:05.915Z,13.00
2023-02-12T18:16:38.655Z,15.50
2023-02-12T18:19:11.291Z,15.30
2023-02-12T18:21:44.104Z,15.60
2023-02-12T18:24:16.529Z,14.90
2023-02-12T18:26:49.049Z,16.00
2023-02-12T18:29:21.604Z,16.50
2023-02-12T18:31:55.154Z,16.60
2023-02-12T18:34:27.724Z,18.50
2023-02-12T18:36:59.996Z,17.70
2023-02-12T18:39:32.505Z,16.80
2023-02-12T18:42:05.469Z,18.00
2023-02-12T18:44:37.743Z,18.90
2023-02-12T18:47:10.372Z,18.80
2023-02-12T18:49:42.511Z,19.20
2023-02-12T18:52:15.064Z,17.90
2023-02-12T18:54:47.345Z,18.00
2023-02-12T18:57:19.716Z,22.50
2023-02-12T18:59:51.939Z,20.70
2023-02-12T19:02:24.248Z,18.90
2023-02-12T19:04:56.759Z,19.70
2023-02-12T19:07:29.078Z,22.10
2023-02-12T19:10:01.367Z,19.60
2023-02-12T19:12:33.692Z,19.70
2023-02-12T19:15:07.180Z,20.80
2023-02-12T19:17:39.521Z,21.60
2023-02-12T19:20:14.759Z,19.10
2023-02-12T19:22:47.316Z,19.80
2023-02-12T19:25:20.465Z,23.30
2023-02-12T19:27:53.296Z,22.20
2023-02-12T19:30:25.741Z,24.80
2023-02-12T19:32:58.384Z,23.30
2023-02-12T19:35:30.608Z,26.00
2023-02-12T19:38:03.120Z,26.00
2023-02-12T19:40:35.365Z,27.30
2023-02-12T19:43:07.611Z,25.90
2023-02-12T19:45:39.879Z,27.60
2023-02-12T19:48:12.076Z,25.80
2023-02-12T19:50:49.282Z,28.80
2023-02-12T19:53:21.624Z,26.70
2023-02-12T19:55:54.257Z,29.20
2023-02-12T19:58:26.418Z,25.10
2023-02-12T20:00:58.707Z,23.20
2023-02-12T20:03:30.998Z,24.30
2023-02-12T20:06:09.684Z,22.70
2023-02-12T20:08:43.222Z,21.60
2023-02-12T20:11:20.247Z,25.10
2023-02-12T20:13:52.962Z,24.00
2023-02-12T20:16:31.187Z,29.60
2023-02-12T20:19:07.112Z,42.30
2023-02-12T20:21:39.812Z,39.00
2023-02-12T20:24:12.335Z,36.30
2023-02-12T20:26:44.685Z,43.70
2023-02-12T20:29:19.023Z,39.80
2023-02-12T20:31:51.790Z,38.90
2023-02-12T20:34:24.280Z,38.30
2023-02-12T20:36:56.563Z,35.20
2023-02-12T20:39:28.908Z,32.90
2023-02-12T20:42:01.104Z,30.10
2023-02-12T20:44:34.224Z,30.70
2023-02-12T20:47:06.982Z,28.10
2023-02-12T20:49:39.777Z,29.90
2023-02-12T20:52:12.232Z,31.00
2023-02-12T20:54:46.395Z,28.60
2023-02-12T20:57:20.311Z,30.60
2023-02-12T20:59:52.915Z,32.70
2023-02-12T21:02:25.407Z,33.30
2023-02-12T21:04:57.805Z,39.10
2023-02-12T21:07:30.106Z,38.50
2023-02-12T21:10:05.901Z,38.90
2023-02-12T21:12:38.152Z,38.00
2023-02-12T21:15:14.732Z,39.40
2023-02-12T21:17:46.985Z,38.50
2023-02-12T21:20:19.632Z,36.90
2023-02-12T21:22:51.989Z,37.80
2023-02-12T21:25:24.746Z,35.90
2023-02-12T21:28:01.417Z,34.10
2023-02-12T21:30:34.058Z,33.90
2023-02-12T21:33:06.633Z,32.50
2023-02-12T21:35:41.954Z,32.60
2023-02-12T21:38:14.442Z,33.70
2023-02-12T21:40:47.027Z,31.80
2023-02-12T21:43:19.462Z,30.90
2023-02-12T21:45:56.362Z,31.50
2023-02-12T21:48:29.382Z,30.10
2023-02-12T21:51:02.681Z,32.20
2023-02-12T21:53:35.235Z,29.20
2023-02-12T21:56:08.588Z,27.00
2023-02-12T21:58:41.272Z,30.20
2023-02-12T22:01:19.318Z,31.40
2023-02-12T22:03:53.328Z,33.30
2023-02-12T22:06:29.054Z,30.90
2023-02-12T22:09:06.622Z,32.00
2023-02-12T22:11:41.915Z,32.60
2023-02-12T22:16:55.627Z,30.60
2023-02-12T22:19:35.390Z,32.10
2023-02-12T22:22:08.244Z,34.40
2023-02-12T22:24:45.795Z,33.80
2023-02-12T22:27:20.497Z,36.20
2023-02-12T22:29:53.430Z,37.00
2023-02-12T22:32:29.122Z,35.60
2023-02-12T22:35:01.412Z,33.80
2023-02-12T22:37:33.825Z,32.20
2023-02-12T22:40:07.103Z,37.40
2023-02-12T22:42:39.322Z,33.60
2023-02-12T22:45:12.401Z,33.80
2023-02-12T22:47:44.596Z,32.00
2023-02-12T22:50:20.272Z,40.80
2023-02-12T22:52:52.809Z,34.60
2023-02-12T22:55:26.334Z,34.20
2023-02-12T22:57:59.673Z,35.90
2023-02-12T23:00:32.104Z,36.50
2023-02-12T23:03:04.868Z,35.60
2023-02-12T23:05:39.908Z,38.50
2023-02-12T23:08:12.107Z,36.20
2023-02-12T23:10:45.221Z,34.50
2023-02-12T23:13:28.977Z,36.00
2023-02-12T23:16:02.101Z,35.30
2023-02-12T23:18:35.436Z,36.60
2023-02-12T23:21:12.281Z,36.50
2023-02-12T23:23:44.470Z,35.10
2023-02-12T23:26:19.378Z,41.00
2023-02-12T23:28:59.389Z,37.30
2023-02-12T23:31:31.842Z,35.30
2023-02-12T23:34:04.400Z,37.40
2023-02-12T23:36:42.031Z,36.20
2023-02-12T23:39:15.505Z,36.80
2023-02-12T23:41:47.788Z,38.50
2023-02-12T23:44:20.063Z,38.00
2023-02-12T23:46:54.013Z,36.80
2023-02-12T23:49:26.696Z,36.40
2023-02-12T23:51:58.955Z,40.70
2023-02-12T23:54:32.016Z,35.70
2023-02-12T23:57:04.354Z,37.20
2023-02-12T23:59:37.053Z,38.90
